Time;durP1;ratioP1;P1;durP2;ratioP2;P2;SDS_P1;SDS_P2;PMS_P1;PMS_P2;Temp;Humidity;BMP_temperature;BMP_pressure;BME280_temperature;BME280_humidity;BME280_pressure;Samples;Min_cycle;Max_cycle;Signal;HPM_P1;HPM_P2
2022/08/16 00:00:04;;;;;;;3.55;2.55;;;;;;;;;;5071167;28;20028;-76
2022/08/16 00:02:51;;;;;;;5.80;2.40;;;;;;;;;;5064164;28;20032;-76
2022/08/16 00:05:36;;;;;;;7.03;2.95;;;;;;;;;;5071202;28;20117;-76
2022/08/16 00:08:22;;;;;;;4.82;2.75;;;;;;;;;;5074788;28;20378;-70
2022/08/16 00:11:08;;;;;;;9.65;3.65;;;;;;;;;;5064690;28;20032;-76
2022/08/16 00:13:54;;;;;;;4.85;2.67;;;;;;;;;;5074151;28;20116;-75
2022/08/16 00:16:40;;;;;;;7.35;2.55;;;;;;;;;;5074297;28;20141;-75
2022/08/16 00:19:27;;;;;;;3.33;2.60;;;;;;;;;;5074150;28;20040;-75
2022/08/16 00:22:13;;;;;;;3.22;2.53;;;;;;;;;;5067827;28;20033;-75
2022/08/16 00:24:58;;;;;;;3.92;2.83;;;;;;;;;;5061986;28;20029;-75
2022/08/16 00:27:44;;;;;;;4.15;2.72;;;;;;;;;;5076482;28;20447;-75
2022/08/16 00:30:30;;;;;;;4.22;2.42;;;;;;;;;;5073722;28;20024;-78
2022/08/16 00:33:15;;;;;;;4.10;2.40;;;;;;;;;;5085570;28;20399;-76
2022/08/16 00:36:01;;;;;;;3.55;2.70;;;;;;;;;;5075547;28;20031;-77
2022/08/16 00:38:46;;;;;;;4.43;2.75;;;;;;;;;;5072546;28;20113;-76
2022/08/16 00:41:32;;;;;;;5.82;2.88;;;;;;;;;;5078920;28;20028;-76
2022/08/16 00:44:19;;;;;;;6.22;3.05;;;;;;;;;;5082469;28;20033;-70
2022/08/16 00:47:08;;;;;;;3.83;2.63;;;;;;;;;;5056474;28;20037;-69
2022/08/16 00:49:54;;;;;;;7.75;3.80;;;;;;;;;;5071997;28;20388;-71
2022/08/16 00:52:40;;;;;;;5.45;2.88;;;;;;;;;;5072921;28;20028;-71
2022/08/16 00:55:25;;;;;;;7.35;3.45;;;;;;;;;;5084476;28;20032;-70
2022/08/16 00:58:12;;;;;;;7.10;2.78;;;;;;;;;;5080973;28;20047;-70
2022/08/16 01:00:57;;;;;;;4.25;3.10;;;;;;;;;;5085699;28;20111;-70
2022/08/16 01:03:45;;;;;;;5.32;3.13;;;;;;;;;;5081033;28;20422;-74
2022/08/16 01:06:31;;;;;;;4.55;2.85;;;;;;;;;;5075107;28;20023;-77
2022/08/16 01:09:17;;;;;;;8.77;3.20;;;;;;;;;;5094851;28;20075;-77
2022/08/16 01:12:04;;;;;;;4.30;2.67;;;;;;;;;;5073715;28;20369;-75
2022/08/16 01:14:53;;;;;;;5.43;3.17;;;;;;;;;;5078478;28;20029;-76
2022/08/16 01:17:40;;;;;;;3.88;2.90;;;;;;;;;;5071283;28;20028;-74
2022/08/16 01:20:27;;;;;;;4.53;2.80;;;;;;;;;;5067397;28;20078;-75
2022/08/16 01:23:19;;;;;;;4.57;3.13;;;;;;;;;;5066227;28;20033;-76
2022/08/16 01:26:05;;;;;;;6.07;3.65;;;;;;;;;;5062946;28;20387;-73
2022/08/16 01:28:51;;;;;;;6.40;2.75;;;;;;;;;;5072579;28;20028;-73
2022/08/16 01:31:36;;;;;;;4.03;3.10;;;;;;;;;;5089469;28;20401;-72
2022/08/16 01:34:22;;;;;;;4.78;2.92;;;;;;;;;;5092934;28;20028;-74
2022/08/16 01:37:09;;;;;;;7.45;3.60;;;;;;;;;;5078782;28;20017;-73
2022/08/16 01:39:55;;;;;;;5.32;2.97;;;;;;;;;;5078320;28;20379;-76
2022/08/16 01:42:41;;;;;;;3.60;2.67;;;;;;;;;;5065478;28;20043;-74
2022/08/16 01:45:26;;;;;;;6.15;3.20;;;;;;;;;;5074046;28;20028;-74
2022/08/16 01:48:12;;;;;;;5.50;3.40;;;;;;;;;;5076623;28;20047;-73
2022/08/16 01:50:59;;;;;;;4.55;3.00;;;;;;;;;;5101068;28;20019;-74
2022/08/16 01:53:44;;;;;;;5.30;2.72;;;;;;;;;;5079219;28;20021;-74
2022/08/16 01:56:31;;;;;;;6.53;3.65;;;;;;;;;;5050917;28;20036;-74
2022/08/16 01:59:16;;;;;;;4.70;3.00;;;;;;;;;;5072759;28;20040;-77
2022/08/16 02:02:02;;;;;;;4.28;3.28;;;;;;;;;;5078215;28;20406;-72
2022/08/16 02:04:48;;;;;;;5.80;3.60;;;;;;;;;;5085377;28;20036;-72
2022/08/16 02:07:34;;;;;;;4.00;3.10;;;;;;;;;;5066411;28;20021;-72
2022/08/16 02:10:20;;;;;;;7.38;2.80;;;;;;;;;;5080881;28;20039;-71
2022/08/16 02:13:06;;;;;;;7.05;3.63;;;;;;;;;;5083219;28;20482;-72
2022/08/16 02:15:51;;;;;;;5.13;3.13;;;;;;;;;;5080726;28;20361;-71
2022/08/16 02:18:37;;;;;;;4.82;3.15;;;;;;;;;;5069803;28;20113;-76
2022/08/16 02:21:23;;;;;;;7.05;3.53;;;;;;;;;;5070108;28;20032;-77
2022/08/16 02:24:08;;;;;;;5.68;3.40;;;;;;;;;;5069910;28;20535;-78
2022/08/16 02:26:55;;;;;;;5.03;3.60;;;;;;;;;;5087144;28;20059;-78
2022/08/16 02:29:41;;;;;;;6.00;3.25;;;;;;;;;;5067050;28;20024;-78
2022/08/16 02:32:27;;;;;;;4.35;3.08;;;;;;;;;;5054341;28;20118;-77
2022/08/16 02:35:13;;;;;;;4.97;3.38;;;;;;;;;;5071363;28;20024;-76
2022/08/16 02:37:59;;;;;;;7.93;3.15;;;;;;;;;;5075413;28;20086;-78
2022/08/16 02:40:45;;;;;;;5.95;3.13;;;;;;;;;;5051512;28;20024;-77
2022/08/16 02:43:31;;;;;;;5.78;3.13;;;;;;;;;;5073388;28;20163;-77
2022/08/16 02:46:17;;;;;;;4.68;3.50;;;;;;;;;;5076653;28;20081;-78
2022/08/16 02:49:03;;;;;;;5.32;3.50;;;;;;;;;;5086182;28;20025;-76
2022/08/16 02:51:49;;;;;;;4.22;3.03;;;;;;;;;;5070995;28;20036;-77
2022/08/16 02:54:35;;;;;;;8.77;4.20;;;;;;;;;;5074159;28;20020;-79
2022/08/16 02:57:22;;;;;;;3.97;2.70;;;;;;;;;;5082218;28;20501;-76
2022/08/16 03:00:09;;;;;;;5.22;3.67;;;;;;;;;;5073093;28;20031;-76
2022/08/16 03:02:55;;;;;;;4.97;3.13;;;;;;;;;;5080517;28;20023;-75
2022/08/16 03:05:40;;;;;;;4.85;4.00;;;;;;;;;;5069837;28;20033;-77
2022/08/16 03:08:26;;;;;;;4.38;3.05;;;;;;;;;;5072007;28;20198;-75
2022/08/16 03:11:12;;;;;;;6.13;3.42;;;;;;;;;;5076128;28;20415;-75
2022/08/16 03:13:58;;;;;;;5.03;2.83;;;;;;;;;;5071673;28;20445;-71
2022/08/16 03:16:43;;;;;;;4.80;3.33;;;;;;;;;;5058511;28;20120;-75
2022/08/16 03:19:31;;;;;;;6.50;3.40;;;;;;;;;;5075185;28;20094;-76
2022/08/16 03:22:17;;;;;;;6.13;3.22;;;;;;;;;;5056181;28;20419;-75
2022/08/16 03:25:05;;;;;;;7.75;3.53;;;;;;;;;;5074779;28;20021;-75
2022/08/16 03:27:51;;;;;;;7.15;3.63;;;;;;;;;;5083877;28;20052;-75
2022/08/16 03:30:37;;;;;;;5.55;3.83;;;;;;;;;;5073684;28;20063;-75
2022/08/16 03:33:23;;;;;;;4.68;3.40;;;;;;;;;;5070646;28;20467;-75
2022/08/16 03:36:08;;;;;;;6.22;3.50;;;;;;;;;;5062781;28;20055;-76
2022/08/16 03:38:54;;;;;;;4.65;3.25;;;;;;;;;;5082818;28;20040;-75
2022/08/16 03:41:40;;;;;;;5.28;3.47;;;;;;;;;;5075087;28;20364;-75
2022/08/16 03:44:26;;;;;;;4.72;3.28;;;;;;;;;;5075132;28;20044;-75
2022/08/16 03:47:11;;;;;;;6.50;3.35;;;;;;;;;;5074592;28;20036;-74
2022/08/16 03:49:57;;;;;;;5.30;3.72;;;;;;;;;;5086299;28;20086;-72
2022/08/16 03:52:42;;;;;;;7.20;3.60;;;;;;;;;;5089259;28;20090;-76
2022/08/16 03:55:28;;;;;;;7.30;4.18;;;;;;;;;;5080908;28;20025;-76
2022/08/16 03:58:14;;;;;;;5.75;3.60;;;;;;;;;;5042596;28;20040;-77
2022/08/16 04:00:59;;;;;;;7.13;3.80;;;;;;;;;;5075660;28;20467;-75
2022/08/16 04:03:45;;;;;;;6.43;3.83;;;;;;;;;;5075639;28;20102;-77
2022/08/16 04:06:31;;;;;;;5.00;3.35;;;;;;;;;;5068411;28;20103;-73
2022/08/16 04:09:16;;;;;;;7.00;3.60;;;;;;;;;;5070303;28;20032;-74
2022/08/16 04:12:03;;;;;;;4.68;3.05;;;;;;;;;;5072746;28;20074;-71
2022/08/16 04:14:49;;;;;;;5.95;3.83;;;;;;;;;;5082394;28;20103;-72
2022/08/16 04:17:37;;;;;;;6.78;3.85;;;;;;;;;;5074158;28;20150;-71
2022/08/16 04:20:24;;;;;;;5.17;3.33;;;;;;;;;;5067115;28;20029;-73
2022/08/16 04:23:10;;;;;;;6.30;3.80;;;;;;;;;;5072281;28;20028;-71
2022/08/16 04:25:55;;;;;;;4.93;3.22;;;;;;;;;;5077683;28;20123;-73
2022/08/16 04:28:41;;;;;;;5.65;3.40;;;;;;;;;;5084217;28;20039;-75
2022/08/16 04:31:27;;;;;;;9.63;3.55;;;;;;;;;;5084021;28;20352;-76
2022/08/16 04:34:13;;;;;;;5.80;3.63;;;;;;;;;;5085395;28;20043;-75
2022/08/16 04:36:58;;;;;;;5.65;3.60;;;;;;;;;;5078663;28;20031;-75
2022/08/16 04:39:44;;;;;;;6.55;3.95;;;;;;;;;;5086178;28;20399;-75
2022/08/16 04:42:30;;;;;;;5.63;3.78;;;;;;;;;;5071671;28;20475;-75
2022/08/16 04:45:16;;;;;;;5.65;3.80;;;;;;;;;;5083443;28;20031;-71
2022/08/16 04:48:02;;;;;;;6.13;4.10;;;;;;;;;;5079220;28;20055;-71
2022/08/16 04:50:48;;;;;;;7.25;3.80;;;;;;;;;;5075163;28;20111;-72
2022/08/16 04:53:34;;;;;;;6.35;4.25;;;;;;;;;;5070455;28;20056;-71
2022/08/16 04:56:19;;;;;;;5.10;3.60;;;;;;;;;;5087585;28;20533;-72
2022/08/16 04:59:07;;;;;;;4.68;3.70;;;;;;;;;;5080527;28;20059;-72
2022/08/16 05:01:55;;;;;;;6.45;3.50;;;;;;;;;;5062210;28;20036;-77
2022/08/16 05:04:41;;;;;;;6.40;4.15;;;;;;;;;;5089431;28;20028;-77
2022/08/16 05:07:26;;;;;;;5.90;3.33;;;;;;;;;;5077555;28;20341;-77
2022/08/16 05:10:12;;;;;;;5.30;4.28;;;;;;;;;;5082901;28;20032;-76
2022/08/16 05:12:58;;;;;;;6.20;3.70;;;;;;;;;;5071781;28;20027;-76
2022/08/16 05:15:45;;;;;;;6.85;3.42;;;;;;;;;;5076971;28;20036;-78
2022/08/16 05:18:32;;;;;;;5.55;3.35;;;;;;;;;;5072837;28;21333;-76
2022/08/16 05:21:18;;;;;;;9.35;4.32;;;;;;;;;;5057542;28;20055;-73
2022/08/16 05:24:04;;;;;;;5.93;3.65;;;;;;;;;;5058476;28;20036;-77
2022/08/16 05:26:50;;;;;;;7.93;4.00;;;;;;;;;;5071908;28;20113;-78
2022/08/16 05:29:35;;;;;;;7.03;4.10;;;;;;;;;;5060706;28;20021;-78
2022/08/16 05:32:21;;;;;;;5.80;3.70;;;;;;;;;;5073226;28;20064;-77
2022/08/16 05:35:08;;;;;;;8.48;4.07;;;;;;;;;;5075142;28;20039;-76
2022/08/16 05:37:54;;;;;;;6.35;3.42;;;;;;;;;;5072140;28;20513;-78
2022/08/16 05:40:39;;;;;;;6.78;3.70;;;;;;;;;;5064386;28;20028;-74
2022/08/16 05:43:25;;;;;;;5.90;3.67;;;;;;;;;;5081309;28;20065;-72
2022/08/16 05:46:11;;;;;;;5.28;3.53;;;;;;;;;;5072803;28;20025;-72
2022/08/16 05:48:58;;;;;;;6.47;3.88;;;;;;;;;;5071465;28;20499;-72
2022/08/16 05:51:44;;;;;;;5.88;3.47;;;;;;;;;;5048164;28;20371;-72
2022/08/16 05:54:30;;;;;;;6.22;4.18;;;;;;;;;;5063787;28;20370;-71
2022/08/16 05:57:17;;;;;;;5.95;3.45;;;;;;;;;;5088422;28;20554;-74
2022/08/16 06:00:07;;;;;;;5.55;3.60;;;;;;;;;;5088405;28;20077;-73
2022/08/16 06:02:53;;;;;;;6.30;3.60;;;;;;;;;;5081904;28;20059;-69
2022/08/16 06:05:39;;;;;;;6.97;3.75;;;;;;;;;;5065782;28;20119;-70
2022/08/16 06:08:24;;;;;;;5.32;3.78;;;;;;;;;;5077696;28;20020;-69
2022/08/16 06:11:10;;;;;;;7.72;3.65;;;;;;;;;;5065157;28;20032;-69
2022/08/16 06:13:56;;;;;;;7.47;4.15;;;;;;;;;;5069335;28;20072;-69
2022/08/16 06:16:41;;;;;;;6.22;3.90;;;;;;;;;;5076148;28;20880;-72
2022/08/16 06:19:27;;;;;;;9.00;3.60;;;;;;;;;;5065490;28;20032;-72
2022/08/16 06:22:13;;;;;;;5.88;3.72;;;;;;;;;;5056006;28;20117;-74
2022/08/16 06:24:58;;;;;;;6.65;3.63;;;;;;;;;;5066637;28;20483;-73
2022/08/16 06:27:44;;;;;;;6.97;4.07;;;;;;;;;;5078024;28;20116;-74
2022/08/16 06:30:31;;;;;;;6.53;4.13;;;;;;;;;;5061546;28;20032;-73
2022/08/16 06:33:16;;;;;;;6.05;3.38;;;;;;;;;;5087462;28;20498;-74
2022/08/16 06:36:02;;;;;;;5.90;3.33;;;;;;;;;;5075736;28;20024;-76
2022/08/16 06:38:48;;;;;;;8.55;3.25;;;;;;;;;;5077116;28;20549;-75
2022/08/16 06:41:34;;;;;;;6.45;3.70;;;;;;;;;;5059043;28;20031;-76
2022/08/16 06:44:19;;;;;;;4.85;3.30;;;;;;;;;;5070665;28;20055;-76
2022/08/16 06:47:05;;;;;;;4.28;3.00;;;;;;;;;;5084267;28;20289;-73
2022/08/16 06:49:51;;;;;;;5.57;3.00;;;;;;;;;;5106205;28;20395;-74
2022/08/16 06:52:37;;;;;;;6.38;3.38;;;;;;;;;;5083613;28;20078;-74
2022/08/16 06:55:23;;;;;;;6.70;3.33;;;;;;;;;;5068279;28;20036;-80
2022/08/16 06:58:09;;;;;;;8.52;3.53;;;;;;;;;;5086835;28;20032;-80
2022/08/16 07:00:54;;;;;;;5.53;3.25;;;;;;;;;;5076506;28;20037;-76
2022/08/16 07:03:40;;;;;;;6.53;3.65;;;;;;;;;;5077817;28;20120;-74
2022/08/16 07:06:25;;;;;;;4.35;3.00;;;;;;;;;;5085840;28;20028;-76
2022/08/16 07:09:12;;;;;;;6.75;3.13;;;;;;;;;;5068841;28;20037;-76
2022/08/16 07:11:57;;;;;;;4.18;3.20;;;;;;;;;;5078146;28;20031;-74
2022/08/16 07:17:48;;;;;;;4.93;2.90;;;;;;;;;;5062617;28;20089;-75
2022/08/16 07:20:34;;;;;;;4.13;3.00;;;;;;;;;;5070519;28;20041;-73
2022/08/16 07:23:19;;;;;;;5.97;2.90;;;;;;;;;;5068465;28;20035;-75
2022/08/16 07:26:10;;;;;;;6.85;3.03;;;;;;;;;;5079669;28;20468;-71
2022/08/16 07:28:56;;;;;;;6.57;3.15;;;;;;;;;;5068508;28;20082;-74
2022/08/16 07:31:41;;;;;;;3.55;2.72;;;;;;;;;;5071177;28;20164;-73
2022/08/16 07:34:27;;;;;;;6.15;3.78;;;;;;;;;;5080262;28;20512;-73
2022/08/16 07:37:13;;;;;;;5.75;3.13;;;;;;;;;;5083697;28;20049;-73
2022/08/16 07:39:59;;;;;;;7.15;3.00;;;;;;;;;;5069398;28;20036;-73
2022/08/16 07:42:44;;;;;;;6.78;3.00;;;;;;;;;;5074353;28;20034;-72
2022/08/16 07:45:32;;;;;;;7.13;3.63;;;;;;;;;;5081468;28;20390;-73
2022/08/16 07:48:17;;;;;;;6.20;3.30;;;;;;;;;;5076616;28;20020;-74
2022/08/16 07:51:03;;;;;;;5.38;3.28;;;;;;;;;;5089737;28;20352;-75
2022/08/16 07:53:50;;;;;;;6.75;3.65;;;;;;;;;;5056711;28;20064;-76
2022/08/16 07:56:36;;;;;;;5.50;3.50;;;;;;;;;;5072170;28;20147;-75
2022/08/16 07:59:23;;;;;;;6.72;3.50;;;;;;;;;;5071425;28;20025;-76
2022/08/16 08:02:10;;;;;;;4.55;3.03;;;;;;;;;;5075577;28;20036;-77
2022/08/16 08:04:55;;;;;;;3.75;2.90;;;;;;;;;;5081932;28;20449;-78
2022/08/16 08:07:41;;;;;;;5.57;3.30;;;;;;;;;;5056599;28;20056;-74
2022/08/16 08:10:27;;;;;;;8.07;3.55;;;;;;;;;;5062342;28;20572;-76
2022/08/16 08:13:14;;;;;;;5.93;3.05;;;;;;;;;;5081161;28;20054;-74
2022/08/16 08:16:00;;;;;;;6.43;3.60;;;;;;;;;;5082329;28;20098;-76
2022/08/16 08:18:47;;;;;;;6.05;3.40;;;;;;;;;;5087891;28;20513;-74
2022/08/16 08:21:33;;;;;;;10.13;4.00;;;;;;;;;;5077905;28;20111;-64
2022/08/16 08:24:19;;;;;;;6.82;4.03;;;;;;;;;;5070411;28;20128;-63
2022/08/16 08:27:07;;;;;;;7.65;3.50;;;;;;;;;;5075732;28;20367;-62
2022/08/16 08:29:52;;;;;;;6.35;3.38;;;;;;;;;;5069889;28;20075;-62
2022/08/16 08:32:38;;;;;;;17.15;5.78;;;;;;;;;;5062239;28;20450;-66
2022/08/16 08:35:24;;;;;;;5.03;3.45;;;;;;;;;;5066502;28;20039;-64
2022/08/16 08:38:10;;;;;;;6.13;3.55;;;;;;;;;;5070975;28;20305;-68
2022/08/16 08:40:55;;;;;;;6.47;3.55;;;;;;;;;;5064531;28;20269;-62
2022/08/16 08:43:41;;;;;;;9.05;4.53;;;;;;;;;;5072438;28;20463;-70
2022/08/16 08:46:27;;;;;;;9.88;3.70;;;;;;;;;;5069078;28;20089;-69
2022/08/16 08:49:13;;;;;;;5.85;3.38;;;;;;;;;;5067833;28;20024;-69
2022/08/16 08:51:58;;;;;;;5.30;3.40;;;;;;;;;;5048152;28;20035;-66
2022/08/16 08:54:44;;;;;;;5.22;3.55;;;;;;;;;;5056333;28;20490;-72
2022/08/16 08:57:29;;;;;;;8.07;3.55;;;;;;;;;;5062212;28;20392;-72
2022/08/16 09:00:16;;;;;;;7.75;4.25;;;;;;;;;;5057361;28;20028;-73
2022/08/16 09:03:03;;;;;;;5.68;3.63;;;;;;;;;;5055426;28;20028;-64
2022/08/16 09:05:50;;;;;;;6.03;3.78;;;;;;;;;;5056744;28;20028;-69
2022/08/16 09:08:35;;;;;;;7.15;3.45;;;;;;;;;;5056463;28;20486;-67
2022/08/16 09:11:21;;;;;;;5.28;3.45;;;;;;;;;;5065353;28;20036;-66
2022/08/16 09:14:08;;;;;;;5.88;4.28;;;;;;;;;;5069432;28;20098;-65
2022/08/16 09:16:53;;;;;;;7.95;3.72;;;;;;;;;;5074329;28;20032;-65
2022/08/16 09:19:39;;;;;;;7.65;4.32;;;;;;;;;;5093804;28;20059;-64
2022/08/16 09:22:26;;;;;;;6.13;3.10;;;;;;;;;;5083363;28;20375;-62
2022/08/16 09:25:12;;;;;;;7.72;3.75;;;;;;;;;;5071184;28;20041;-62
2022/08/16 09:27:58;;;;;;;6.25;3.28;;;;;;;;;;5076099;28;20111;-63
2022/08/16 09:30:44;;;;;;;8.10;3.80;;;;;;;;;;5071701;28;20036;-64
2022/08/16 09:33:29;;;;;;;7.25;3.45;;;;;;;;;;5088192;28;20039;-62
2022/08/16 09:36:15;;;;;;;9.40;4.72;;;;;;;;;;5078585;28;20394;-64
2022/08/16 09:39:02;;;;;;;8.38;3.65;;;;;;;;;;5076195;28;20033;-64
2022/08/16 09:41:50;;;;;;;7.25;3.97;;;;;;;;;;5068320;28;20029;-66
2022/08/16 09:44:35;;;;;;;10.07;3.88;;;;;;;;;;5071790;28;20549;-64
2022/08/16 09:47:21;;;;;;;6.88;3.92;;;;;;;;;;5084302;28;20062;-67
2022/08/16 09:50:08;;;;;;;11.07;3.55;;;;;;;;;;5081891;28;20032;-65
2022/08/16 09:52:54;;;;;;;8.02;3.80;;;;;;;;;;5075689;28;20093;-65
2022/08/16 09:55:45;;;;;;;5.40;3.33;;;;;;;;;;5080077;28;20024;-65
2022/08/16 09:58:30;;;;;;;8.35;3.63;;;;;;;;;;5071804;28;20035;-61
2022/08/16 10:01:17;;;;;;;6.32;3.65;;;;;;;;;;5077927;28;20098;-65
2022/08/16 10:04:04;;;;;;;8.00;4.20;;;;;;;;;;5089509;28;20050;-67
2022/08/16 10:06:49;;;;;;;7.88;4.05;;;;;;;;;;5068673;28;20035;-69
2022/08/16 10:09:35;;;;;;;4.97;3.72;;;;;;;;;;5068677;28;20861;-69
2022/08/16 10:15:27;;;;;;;6.50;3.53;;;;;;;;;;5072327;28;20044;-66
2022/08/16 10:18:13;;;;;;;8.05;4.03;;;;;;;;;;5067019;28;20032;-72
2022/08/16 10:20:58;;;;;;;5.30;3.60;;;;;;;;;;5077270;28;20555;-73
2022/08/16 10:23:44;;;;;;;7.35;4.22;;;;;;;;;;5064595;28;20064;-73
2022/08/16 10:26:32;;;;;;;6.93;4.32;;;;;;;;;;5070030;28;20424;-75
2022/08/16 10:29:18;;;;;;;8.18;4.10;;;;;;;;;;5069864;28;20055;-74
2022/08/16 10:32:04;;;;;;;7.25;4.28;;;;;;;;;;5087932;28;20102;-73
2022/08/16 10:34:49;;;;;;;7.32;3.67;;;;;;;;;;5079815;28;20154;-64
2022/08/16 10:37:35;;;;;;;5.75;3.50;;;;;;;;;;5080336;28;20029;-68
2022/08/16 10:40:21;;;;;;;6.95;3.72;;;;;;;;;;5072462;28;20036;-68
2022/08/16 10:43:06;;;;;;;6.88;4.40;;;;;;;;;;5068987;28;20024;-69
2022/08/16 10:45:52;;;;;;;5.43;4.00;;;;;;;;;;5081754;28;20024;-68
2022/08/16 10:48:39;;;;;;;8.05;3.97;;;;;;;;;;5073933;28;20028;-67
2022/08/16 10:51:24;;;;;;;9.68;4.38;;;;;;;;;;5071451;28;20475;-74
2022/08/16 10:54:10;;;;;;;6.20;3.60;;;;;;;;;;5085444;28;20088;-66
2022/08/16 10:56:59;;;;;;;9.65;4.78;;;;;;;;;;5070905;28;20036;-67
2022/08/16 10:59:45;;;;;;;5.45;3.97;;;;;;;;;;5073571;28;20086;-67
2022/08/16 11:02:30;;;;;;;8.55;3.97;;;;;;;;;;5063074;28;20045;-67
2022/08/16 11:05:16;;;;;;;8.02;4.13;;;;;;;;;;5063718;28;20117;-67
2022/08/16 11:08:03;;;;;;;9.05;4.50;;;;;;;;;;5097791;28;20070;-66
2022/08/16 11:10:48;;;;;;;5.60;3.70;;;;;;;;;;5094472;28;20089;-69
2022/08/16 11:13:34;;;;;;;4.68;3.55;;;;;;;;;;5077810;28;20169;-66
2022/08/16 11:16:20;;;;;;;6.45;3.90;;;;;;;;;;5089278;28;20116;-66
2022/08/16 11:19:06;;;;;;;5.78;3.88;;;;;;;;;;5088996;28;20036;-66
2022/08/16 11:21:52;;;;;;;9.20;3.88;;;;;;;;;;5069957;28;20029;-67
2022/08/16 11:24:39;;;;;;;7.32;4.00;;;;;;;;;;5086444;28;20036;-65
2022/08/16 11:27:25;;;;;;;6.20;3.85;;;;;;;;;;5078239;28;20028;-67
2022/08/16 11:30:12;;;;;;;11.43;4.28;;;;;;;;;;5096510;28;20114;-65
2022/08/16 11:33:00;;;;;;;4.68;2.90;;;;;;;;;;5094952;28;20036;-62
2022/08/16 11:35:45;;;;;;;7.80;3.58;;;;;;;;;;5083693;28;20032;-62
2022/08/16 11:38:31;;;;;;;5.30;3.30;;;;;;;;;;5086336;28;20028;-62
2022/08/16 11:41:16;;;;;;;5.70;3.60;;;;;;;;;;5070882;28;20025;-63
2022/08/16 11:44:02;;;;;;;4.50;3.28;;;;;;;;;;5084259;28;20025;-63
2022/08/16 11:46:48;;;;;;;7.28;3.63;;;;;;;;;;5084277;28;20278;-64
2022/08/16 11:49:33;;;;;;;4.22;3.35;;;;;;;;;;5082311;28;20490;-67
2022/08/16 11:52:20;;;;;;;5.28;3.35;;;;;;;;;;5060067;28;20024;-68
2022/08/16 11:55:07;;;;;;;3.67;2.92;;;;;;;;;;5089430;28;20120;-65
2022/08/16 11:57:52;;;;;;;6.50;3.45;;;;;;;;;;5079400;28;20369;-65
2022/08/16 12:00:39;;;;;;;5.32;3.40;;;;;;;;;;5082114;28;20051;-66
2022/08/16 12:03:27;;;;;;;5.82;3.47;;;;;;;;;;5073147;28;20035;-68
2022/08/16 12:06:15;;;;;;;6.97;3.83;;;;;;;;;;5077577;28;20019;-66
2022/08/16 12:09:00;;;;;;;5.32;3.38;;;;;;;;;;5089512;28;20050;-69
2022/08/16 12:11:46;;;;;;;5.22;3.55;;;;;;;;;;5073690;28;20036;-69
2022/08/16 12:14:32;;;;;;;5.95;3.50;;;;;;;;;;5075463;28;20036;-69
2022/08/16 12:17:18;;;;;;;3.88;3.22;;;;;;;;;;5085952;28;20040;-69
2022/08/16 12:20:05;;;;;;;6.90;3.70;;;;;;;;;;5083838;28;20483;-69
2022/08/16 12:22:52;;;;;;;5.65;3.47;;;;;;;;;;5093941;28;20550;-70
2022/08/16 12:25:37;;;;;;;4.82;3.22;;;;;;;;;;5099754;28;20390;-64
2022/08/16 12:28:23;;;;;;;4.90;3.35;;;;;;;;;;5093182;28;20043;-67
2022/08/16 12:31:09;;;;;;;5.40;3.30;;;;;;;;;;5094040;28;20459;-67
2022/08/16 12:33:55;;;;;;;4.47;3.60;;;;;;;;;;5075844;28;20024;-66
2022/08/16 12:36:40;;;;;;;5.20;3.65;;;;;;;;;;5078225;28;20067;-66
2022/08/16 12:39:26;;;;;;;4.50;3.17;;;;;;;;;;5073748;28;20062;-67
2022/08/16 12:42:11;;;;;;;6.15;3.40;;;;;;;;;;5086246;28;20520;-67
2022/08/16 12:44:57;;;;;;;7.22;3.33;;;;;;;;;;5092450;28;20039;-67
2022/08/16 12:50:46;;;;;;;6.32;3.20;;;;;;;;;;5084407;28;20045;-66
2022/08/16 12:53:33;;;;;;;8.00;3.78;;;;;;;;;;5092007;28;20078;-65
2022/08/16 12:56:20;;;;;;;6.30;3.30;;;;;;;;;;5079981;28;20382;-66
2022/08/16 12:59:08;;;;;;;6.18;4.10;;;;;;;;;;5076186;28;20029;-67
2022/08/16 13:01:58;;;;;;;6.10;3.58;;;;;;;;;;5082855;28;20437;-69
2022/08/16 13:04:44;;;;;;;4.85;3.05;;;;;;;;;;5078844;28;20043;-67
2022/08/16 13:07:31;;;;;;;4.45;3.33;;;;;;;;;;5085022;28;20035;-67
2022/08/16 13:10:18;;;;;;;3.38;2.78;;;;;;;;;;5072662;28;20035;-68
2022/08/16 13:13:05;;;;;;;5.28;3.30;;;;;;;;;;5092564;28;20046;-66
2022/08/16 13:15:56;;;;;;;4.15;3.38;;;;;;;;;;5096610;28;20035;-66
2022/08/16 13:18:41;;;;;;;3.75;3.08;;;;;;;;;;5078905;28;20123;-74
2022/08/16 13:21:27;;;;;;;6.55;3.53;;;;;;;;;;5091866;28;20374;-61
2022/08/16 13:24:12;;;;;;;5.53;3.47;;;;;;;;;;5098726;28;20024;-66
2022/08/16 13:26:58;;;;;;;5.90;4.18;;;;;;;;;;5065000;28;20441;-67
2022/08/16 13:29:43;;;;;;;4.07;3.33;;;;;;;;;;5085077;28;20067;-67
2022/08/16 13:32:29;;;;;;;4.63;2.92;;;;;;;;;;5086335;28;20473;-68
2022/08/16 13:35:15;;;;;;;4.63;3.45;;;;;;;;;;5092241;28;20317;-67
2022/08/16 13:38:00;;;;;;;6.28;2.92;;;;;;;;;;5081678;28;20375;-64
2022/08/16 13:40:46;;;;;;;5.88;3.50;;;;;;;;;;5085012;28;20109;-69
2022/08/16 13:43:32;;;;;;;8.10;3.50;;;;;;;;;;5083337;28;20043;-68
2022/08/16 13:46:18;;;;;;;3.47;2.90;;;;;;;;;;5074606;28;20486;-68
2022/08/16 13:49:03;;;;;;;5.00;3.40;;;;;;;;;;5088685;28;20400;-67
2022/08/16 13:51:49;;;;;;;4.32;3.08;;;;;;;;;;5058725;28;20040;-68
2022/08/16 13:54:35;;;;;;;7.15;3.40;;;;;;;;;;5084528;28;20360;-68
2022/08/16 13:57:20;;;;;;;8.70;2.97;;;;;;;;;;5091130;28;20351;-63
2022/08/16 14:00:08;;;;;;;4.25;2.78;;;;;;;;;;5082643;28;20035;-63
2022/08/16 14:02:53;;;;;;;4.53;2.95;;;;;;;;;;5075174;28;20028;-62
2022/08/16 14:05:39;;;;;;;4.93;3.58;;;;;;;;;;5087352;28;20379;-62
2022/08/16 14:08:25;;;;;;;7.82;4.00;;;;;;;;;;5064365;28;20025;-62
2022/08/16 14:11:11;;;;;;;4.30;3.13;;;;;;;;;;5084841;28;20024;-61
2022/08/16 14:13:57;;;;;;;6.75;3.90;;;;;;;;;;5070943;28;20112;-62
2022/08/16 14:16:43;;;;;;;5.68;2.95;;;;;;;;;;5063536;28;20035;-62
2022/08/16 14:19:29;;;;;;;4.20;3.03;;;;;;;;;;5092050;28;20107;-66
2022/08/16 14:22:16;;;;;;;5.30;3.17;;;;;;;;;;5082502;28;20058;-66
2022/08/16 14:25:04;;;;;;;6.30;3.05;;;;;;;;;;5084384;28;20100;-66
2022/08/16 14:27:50;;;;;;;4.80;3.05;;;;;;;;;;5103351;28;20118;-66
2022/08/16 14:30:36;;;;;;;4.78;3.50;;;;;;;;;;5089452;28;20051;-65
2022/08/16 14:33:22;;;;;;;4.25;2.83;;;;;;;;;;5076569;28;20523;-67
2022/08/16 14:36:08;;;;;;;4.57;3.25;;;;;;;;;;5073981;28;20062;-66
2022/08/16 14:38:53;;;;;;;7.00;3.15;;;;;;;;;;5088222;28;20146;-63
2022/08/16 14:41:39;;;;;;;7.95;3.20;;;;;;;;;;5090083;28;20028;-62
2022/08/16 14:44:24;;;;;;;4.03;3.10;;;;;;;;;;5073772;28;20029;-63
2022/08/16 14:47:10;;;;;;;6.50;3.00;;;;;;;;;;5072108;28;20442;-62
2022/08/16 14:49:55;;;;;;;5.95;2.97;;;;;;;;;;5071658;28;20037;-62
2022/08/16 14:52:43;;;;;;;2.78;2.50;;;;;;;;;;5073993;28;20127;-68
2022/08/16 14:55:30;;;;;;;6.57;3.47;;;;;;;;;;5077312;28;20089;-62
2022/08/16 14:58:16;;;;;;;4.43;2.97;;;;;;;;;;5087873;28;20063;-62
2022/08/16 15:01:01;;;;;;;4.47;3.10;;;;;;;;;;5077296;28;20029;-63
2022/08/16 15:03:47;;;;;;;4.85;2.90;;;;;;;;;;5088641;28;20106;-62
2022/08/16 15:06:32;;;;;;;4.97;3.17;;;;;;;;;;5091146;28;20086;-64
2022/08/16 15:09:18;;;;;;;4.80;3.20;;;;;;;;;;5089986;28;20016;-70
2022/08/16 15:12:08;;;;;;;6.22;3.28;;;;;;;;;;5060310;28;20028;-70
2022/08/16 15:14:54;;;;;;;3.17;2.88;;;;;;;;;;5072096;28;20107;-68
2022/08/16 15:17:41;;;;;;;8.55;3.28;;;;;;;;;;5065545;28;20154;-69
2022/08/16 15:20:28;;;;;;;5.40;3.75;;;;;;;;;;5078040;28;20028;-67
2022/08/16 15:23:13;;;;;;;5.15;3.35;;;;;;;;;;5064931;28;20033;-69
2022/08/16 15:26:00;;;;;;;8.90;3.28;;;;;;;;;;5089168;28;20024;-68
2022/08/16 15:28:46;;;;;;;4.65;3.33;;;;;;;;;;5075846;28;20032;-69
2022/08/16 15:31:32;;;;;;;5.55;3.28;;;;;;;;;;5083325;28;20028;-68
2022/08/16 15:34:18;;;;;;;5.65;3.30;;;;;;;;;;5087912;28;20024;-67
2022/08/16 15:37:04;;;;;;;5.22;3.13;;;;;;;;;;5082620;28;20051;-68
2022/08/16 15:39:50;;;;;;;5.40;3.10;;;;;;;;;;5071442;28;20493;-68
2022/08/16 15:42:35;;;;;;;4.90;3.22;;;;;;;;;;5088369;28;20028;-69
2022/08/16 15:48:29;;;;;;;8.18;3.10;;;;;;;;;;5073213;28;20064;-75
2022/08/16 15:51:15;;;;;;;5.30;3.38;;;;;;;;;;5075101;28;20055;-70
2022/08/16 15:54:00;;;;;;;6.90;3.42;;;;;;;;;;5079324;28;20048;-69
2022/08/16 15:56:50;;;;;;;4.85;3.17;;;;;;;;;;5079491;28;20084;-68
2022/08/16 15:59:35;;;;;;;7.00;3.53;;;;;;;;;;5079436;28;20044;-68
2022/08/16 16:02:21;;;;;;;5.53;3.47;;;;;;;;;;5068808;28;20115;-68
2022/08/16 16:05:07;;;;;;;7.97;3.78;;;;;;;;;;5072200;28;20454;-65
2022/08/16 16:07:53;;;;;;;7.28;3.75;;;;;;;;;;5075775;28;20460;-67
2022/08/16 16:10:39;;;;;;;6.03;3.35;;;;;;;;;;5086207;28;20075;-67
2022/08/16 16:13:25;;;;;;;5.63;3.40;;;;;;;;;;5077110;28;20027;-65
2022/08/16 16:16:11;;;;;;;7.45;3.70;;;;;;;;;;5077970;28;20028;-65
2022/08/16 16:18:56;;;;;;;6.88;3.65;;;;;;;;;;5085353;28;20134;-79
2022/08/16 16:21:42;;;;;;;5.18;3.45;;;;;;;;;;5083392;28;20042;-78
2022/08/16 16:24:28;;;;;;;8.30;3.95;;;;;;;;;;5076265;28;20034;-78
2022/08/16 16:27:13;;;;;;;5.18;3.90;;;;;;;;;;5072558;28;20024;-77
2022/08/16 16:30:01;;;;;;;5.90;3.70;;;;;;;;;;5064162;28;20032;-75
2022/08/16 16:32:50;;;;;;;5.43;3.47;;;;;;;;;;5092292;28;20100;-80
2022/08/16 16:35:36;;;;;;;4.53;3.15;;;;;;;;;;5059974;28;20322;-76
2022/08/16 16:38:22;;;;;;;5.72;3.53;;;;;;;;;;5087643;28;20059;-77
2022/08/16 16:41:08;;;;;;;6.00;3.70;;;;;;;;;;5056278;28;20024;-74
2022/08/16 16:43:54;;;;;;;7.78;3.80;;;;;;;;;;5065718;28;20024;-72
2022/08/16 16:46:40;;;;;;;4.90;3.75;;;;;;;;;;5073313;28;20037;-70